Details From EGBB - Birmingham
To EGLC - London City
Flight Number -
Tags Generated
Created
Modified
Stats Distance 87 nm / 162 km
Max Altitude 0 ft / 0 m
Waypoints 2
Social Downloads 1
Likes 0
Share VATSIM

Download

Looking for another format? Having issues loading an existing format? Contact us
Advertisement - Login to hide

Notes

Generated

Route

EGBB EGLC

ID Type Via Altitude Latitude Longitude Leg Dist Tot Dist Heading (true) Name
O EGBB APT - 0 ft / 0 m 52.45113˚ -1.75493˚ - 0 nm - -
O EGLC APT - 0 ft / 0 m 51.50558˚ 0.04414˚ 87 nm 87 nm 130° / 131° -

Altitude Profile

Advertisement - Login to hide

EGBB

Details ICAO EGBB (BHX)
Name Birmingham
Region United Kingdom
Timezone Europe/London (UTC+1.0)
Stats Elevation 327 ft / 100 m (AMSL)
Location 52.455966° -1.750378°
Runways 1
Magnetic Variation 1.071° W

METAR

EGBB 271620Z 15008KT 8000 TSRA FEW031 BKN037CB 22/18 Q1015 RETS

Decode

TAF

TAF EGBB 271106Z 2712/2812 06009KT 9999 SCT045 TEMPO 2712/2721 6000 SHRA PROB40 TEMPO 2712/2720 3000 +SHRA TSGR BKN014 BKN045CB BECMG 2802/2805 6000 BKN007 PROB40 TEMPO 2804/2809 BKN004 BECMG 2809/2812 9999 FEW045

Decode

Departure Runways

ID Width Length Bearing (true) Bearing (mag) Surface Threshold Offset Overrun Length
15 151 ft / 46 m 8,477 ft / 2,584 m 145.87° 146.94° Asphalt 925 ft / 282 m 0 ft / 0 m
33 151 ft / 46 m 8,477 ft / 2,584 m 325.89° 326.96° Asphalt 958 ft / 292 m 0 ft / 0 m

EGLC

Details ICAO EGLC (LCY)
Name London City
Region United Kingdom
Timezone Europe/London (UTC+1.0)
Stats Elevation 19 ft / 6 m (AMSL)
Location 51.505231° 0.055175°
Runways 1
Magnetic Variation 0.319° W

METAR

EGLC 271620Z AUTO 11010KT 9999 FEW038/// SCT046/// //////CB 25/18 Q1014

Decode

TAF

Not found

Destination Runways

ID Width Length Bearing (true) Bearing (mag) Surface Threshold Offset Overrun Length
09 98 ft / 30 m 4,931 ft / 1,503 m 92.89° 93.21° Concrete 322 ft / 98 m 164 ft / 50 m
27 98 ft / 30 m 4,931 ft / 1,503 m 272.91° 273.23° Concrete 243 ft / 74 m 279 ft / 85 m

Approach Navaids

Runway Type Ident Frequency Range Bearing (true) Bearing (mag) Slope Elevation
09 Localiser ILST 111.15 MHz 18 nm / 33 km 92.91° 93.23° - 19 ft / 6 m (AMSL)
09 Glidescope ILST 111.15 MHz 10 nm / 19 km 92.90° 93.22° 5.05° 35 ft / 11 m (AMSL)
09 DME ILST 111.15 MHz 18 nm / 33 km - - - 48 ft / 15 m (AMSL)
27 Localiser ILSR 111.15 MHz 18 nm / 33 km 272.89° 273.21° - 19 ft / 6 m (AMSL)
27 Glidescope ILSR 111.15 MHz 10 nm / 19 km 272.90° 273.22° 5.50° 35 ft / 11 m (AMSL)
27 DME ILSR 111.15 MHz 18 nm / 33 km - - - 48 ft / 15 m (AMSL)

Popular Alternatives